Time;durP1;ratioP1;P1;durP2;ratioP2;P2;SDS_P1;SDS_P2;PMS_P1;PMS_P2;Temp;Humidity;BMP_temperature;BMP_pressure;BME280_temperature;BME280_humidity;BME280_pressure;Samples;Min_cycle;Max_cycle;Signal;HPM_P1;HPM_P2
2023/02/02 00:00:33;;;;;;;5.47;1.33;;;;;14.00;101887.00;;;;5079426;28;20210;-72
2023/02/02 00:03:00;;;;;;;7.65;1.63;;;;;14.00;101888.00;;;;5091370;28;20190;-72
2023/02/02 00:05:28;;;;;;;5.38;1.63;;;;;14.00;101889.00;;;;5087098;28;20209;-72
2023/02/02 00:07:56;;;;;;;4.90;1.35;;;;;14.00;101892.00;;;;5094260;28;20201;-72
2023/02/02 00:10:23;;;;;;;6.90;1.65;;;;;14.00;101896.00;;;;5090710;28;20194;-72
2023/02/02 00:12:50;;;;;;;8.13;1.65;;;;;14.00;101891.00;;;;5079035;28;20198;-72
2023/02/02 00:15:17;;;;;;;5.70;1.58;;;;;14.00;101899.00;;;;5081615;28;20197;-72
2023/02/02 00:17:45;;;;;;;7.20;1.63;;;;;14.00;101898.00;;;;5080824;28;20237;-72
2023/02/02 00:20:12;;;;;;;7.35;1.30;;;;;14.00;101898.00;;;;5088059;28;20551;-72
2023/02/02 00:22:41;;;;;;;6.80;1.30;;;;;14.00;101905.00;;;;5083254;28;20207;-72
2023/02/02 00:25:09;;;;;;;4.28;1.20;;;;;14.00;101899.00;;;;5085487;28;20549;-72
2023/02/02 00:27:36;;;;;;;3.40;1.00;;;;;14.00;101908.00;;;;5094364;28;20190;-72
2023/02/02 00:30:04;;;;;;;3.63;1.20;;;;;14.00;101900.00;;;;5088908;28;20202;-72
2023/02/02 00:32:32;;;;;;;2.80;1.08;;;;;14.00;101899.00;;;;5085598;28;20194;-72
2023/02/02 00:34:59;;;;;;;6.85;1.50;;;;;14.00;101894.00;;;;5078815;28;20662;-72
2023/02/02 00:37:26;;;;;;;11.10;1.60;;;;;14.00;101894.00;;;;5074025;28;20573;-72
2023/02/02 00:39:55;;;;;;;5.05;1.30;;;;;14.00;101887.00;;;;5084643;28;20194;-72
2023/02/02 00:42:22;;;;;;;4.05;1.30;;;;;14.00;101889.00;;;;5094111;28;20224;-72
2023/02/02 00:47:34;;;;;;;3.08;1.38;;;;;13.90;101907.00;;;;5086288;28;20285;-72
2023/02/02 00:50:01;;;;;;;7.20;1.58;;;;;13.90;101896.00;;;;5086171;28;20198;-72
2023/02/02 00:52:29;;;;;;;6.75;1.88;;;;;13.90;101901.00;;;;5091780;28;20229;-72
2023/02/02 00:54:58;;;;;;;9.13;2.25;;;;;13.90;101898.00;;;;5082566;28;20191;-72
2023/02/02 00:57:25;;;;;;;6.20;1.10;;;;;13.90;101896.00;;;;5084065;28;20247;-72
2023/02/02 00:59:52;;;;;;;4.05;1.52;;;;;13.90;101903.00;;;;5088205;28;20194;-72
2023/02/02 01:02:19;;;;;;;6.30;1.67;;;;;13.90;101904.00;;;;5087217;28;20190;-72
2023/02/02 01:04:46;;;;;;;6.80;1.15;;;;;13.90;101904.00;;;;5090069;28;20198;-72
2023/02/02 01:07:14;;;;;;;4.72;1.35;;;;;13.80;101903.00;;;;5076725;28;20209;-72
2023/02/02 01:09:41;;;;;;;2.90;0.90;;;;;13.80;101911.00;;;;5076709;28;20656;-72
2023/02/02 01:12:10;;;;;;;4.88;1.60;;;;;13.80;101913.00;;;;5092097;28;20195;-72
2023/02/02 01:14:37;;;;;;;7.00;1.25;;;;;13.80;101909.00;;;;5089166;28;20583;-72
2023/02/02 01:17:05;;;;;;;4.95;1.50;;;;;13.80;101915.00;;;;5082822;28;20669;-72
2023/02/02 01:19:32;;;;;;;5.43;0.98;;;;;13.80;101913.00;;;;5071263;28;20708;-72
2023/02/02 01:21:59;;;;;;;4.55;1.00;;;;;13.80;101910.00;;;;5083567;28;20198;-72
2023/02/02 01:24:27;;;;;;;2.90;0.90;;;;;13.80;101911.00;;;;5077706;28;20198;-72
2023/02/02 01:26:56;;;;;;;4.63;1.08;;;;;13.70;101917.00;;;;5077809;28;20211;-72
2023/02/02 01:29:24;;;;;;;1.80;0.43;;;;;13.60;101917.00;;;;5084725;28;20217;-72
2023/02/02 01:31:52;;;;;;;3.67;0.60;;;;;13.60;101927.00;;;;5086525;28;20194;-72
2023/02/02 01:34:19;;;;;;;4.53;0.80;;;;;13.60;101912.00;;;;5088512;28;20656;-72
2023/02/02 01:36:46;;;;;;;2.70;0.30;;;;;13.50;101912.00;;;;5090368;28;20198;-72
2023/02/02 01:39:14;;;;;;;3.67;0.95;;;;;13.50;101915.00;;;;5079174;28;20707;-72
2023/02/02 01:41:42;;;;;;;3.83;0.52;;;;;13.50;101922.00;;;;5081934;28;20197;-72
2023/02/02 01:44:42;;;;;;;2.47;0.77;;;;;13.30;101918.00;;;;5089172;28;20568;-72
2023/02/02 01:47:11;;;;;;;1.23;0.20;;;;;13.40;101915.00;;;;5082416;28;20229;-72
2023/02/02 01:49:39;;;;;;;2.35;0.30;;;;;13.40;101914.00;;;;5074501;28;20202;-72
2023/02/02 01:52:08;;;;;;;2.83;0.63;;;;;13.40;101913.00;;;;5073713;28;20206;-72
2023/02/02 01:54:40;;;;;;;3.00;0.40;;;;;13.40;101910.00;;;;5071683;28;20199;-72
2023/02/02 01:57:12;;;;;;;3.00;0.30;;;;;13.40;101912.00;;;;5081122;28;20203;-72
2023/02/02 01:59:41;;;;;;;3.65;0.63;;;;;13.40;101909.00;;;;5076053;28;20234;-72
2023/02/02 02:02:10;;;;;;;1.33;0.43;;;;;13.50;101917.00;;;;5075818;28;20210;-72
2023/02/02 02:04:37;;;;;;;1.08;0.30;;;;;13.50;101916.00;;;;5088747;28;20657;-72
2023/02/02 02:07:06;;;;;;;1.52;0.28;;;;;13.50;101915.00;;;;5087992;28;20194;-72
2023/02/02 02:09:34;;;;;;;3.42;0.68;;;;;13.50;101912.00;;;;5089292;28;20198;-72
2023/02/02 02:12:01;;;;;;;2.65;0.45;;;;;13.50;101912.00;;;;5086876;28;20205;-72
2023/02/02 02:17:39;;;;;;;2.92;1.02;;;;;13.50;101905.00;;;;5085395;28;20198;-72
2023/02/02 02:27:09;;;;;;;1.83;0.70;;;;;13.50;101905.00;;;;5001620;28;20208;-72
2023/02/02 02:30:22;;;;;;;1.90;0.85;;;;;13.50;101902.00;;;;5006929;28;20227;-72
2023/02/02 02:32:56;;;;;;;6.57;1.35;;;;;13.60;101901.00;;;;5002145;28;20718;-72
2023/02/02 02:35:33;;;;;;;2.88;1.02;;;;;13.60;101899.00;;;;5057629;28;20290;-72
2023/02/02 02:38:08;;;;;;;4.35;0.90;;;;;13.60;101894.00;;;;5077925;28;20203;-72
2023/02/02 02:40:40;;;;;;;3.55;1.15;;;;;13.60;101902.00;;;;5080845;28;20205;-72
2023/02/02 02:43:12;;;;;;;5.07;1.08;;;;;13.60;101904.00;;;;5089914;28;20187;-72
2023/02/02 02:45:40;;;;;;;4.70;1.25;;;;;13.60;101902.00;;;;5087316;28;20579;-73
2023/02/02 02:48:10;;;;;;;8.70;1.30;;;;;13.60;101896.00;;;;5088694;28;20191;-72
2023/02/02 02:50:38;;;;;;;7.90;1.98;;;;;13.60;101898.00;;;;5080851;28;20197;-72
2023/02/02 02:53:08;;;;;;;6.57;1.40;;;;;13.60;101885.00;;;;5069652;28;20226;-72
2023/02/02 02:55:47;;;;;;;8.50;1.92;;;;;13.60;101879.00;;;;5068709;28;20226;-72
2023/02/02 02:58:21;;;;;;;8.70;2.17;;;;;13.60;101877.00;;;;5088589;28;20226;-72
2023/02/02 03:01:02;;;;;;;4.47;1.17;;;;;13.50;101870.00;;;;5088331;28;20202;-72
2023/02/02 03:03:45;;;;;;;5.18;0.95;;;;;13.50;101870.00;;;;5088757;28;20666;-72
2023/02/02 03:06:21;;;;;;;3.92;1.35;;;;;13.60;101874.00;;;;5080732;28;20182;-72
2023/02/02 03:08:52;;;;;;;8.77;1.65;;;;;13.60;101869.00;;;;5087243;28;20198;-73
2023/02/02 03:11:20;;;;;;;10.02;1.80;;;;;13.60;101882.00;;;;5078492;28;20198;-72
2023/02/02 03:13:48;;;;;;;4.10;1.00;;;;;13.60;101870.00;;;;5088198;28;20964;-72
2023/02/02 03:16:16;;;;;;;9.98;1.92;;;;;13.60;101885.00;;;;5087693;28;20668;-73
2023/02/02 03:18:45;;;;;;;5.13;2.15;;;;;13.60;101878.00;;;;5068737;28;20229;-73
2023/02/02 03:21:12;;;;;;;8.15;1.67;;;;;13.60;101889.00;;;;5085063;28;20204;-72
2023/02/02 03:23:39;;;;;;;2.97;1.15;;;;;13.60;101892.00;;;;5074416;28;20191;-72
2023/02/02 03:26:07;;;;;;;4.20;1.20;;;;;13.60;101903.00;;;;5077371;28;20206;-72
2023/02/02 03:28:35;;;;;;;7.20;1.67;;;;;13.60;101905.00;;;;5088120;28;20204;-72
2023/02/02 03:31:02;;;;;;;7.80;1.30;;;;;13.60;101910.00;;;;5083145;28;20195;-72
2023/02/02 03:33:32;;;;;;;8.05;1.33;;;;;13.60;101923.00;;;;5084846;28;20579;-72
2023/02/02 03:36:00;;;;;;;5.50;1.63;;;;;13.60;101922.00;;;;5074131;28;20214;-72
2023/02/02 03:38:27;;;;;;;7.93;2.10;;;;;13.60;101912.00;;;;5072748;28;20802;-72
2023/02/02 03:40:55;;;;;;;10.57;2.10;;;;;13.60;101925.00;;;;5083256;28;20195;-72
2023/02/02 03:43:22;;;;;;;9.30;1.80;;;;;13.60;101920.00;;;;5076001;28;20195;-72
2023/02/02 03:45:57;;;;;;;8.82;2.17;;;;;13.60;101904.00;;;;5074748;28;20238;-72
2023/02/02 03:48:24;;;;;;;5.00;1.58;;;;;13.70;101908.00;;;;5083137;28;20198;-72
2023/02/02 03:50:51;;;;;;;8.43;1.58;;;;;13.70;101925.00;;;;5077141;28;20191;-72
2023/02/02 03:53:20;;;;;;;9.63;2.25;;;;;13.70;101916.00;;;;5070668;28;20218;-73
2023/02/02 03:55:47;;;;;;;3.17;1.27;;;;;13.70;101917.00;;;;5080609;28;20194;-72
2023/02/02 03:58:14;;;;;;;6.88;1.48;;;;;13.70;101917.00;;;;5067070;28;20195;-71
2023/02/02 04:00:42;;;;;;;9.05;1.48;;;;;13.70;101911.00;;;;5080282;28;20198;-72
2023/02/02 04:03:09;;;;;;;6.95;1.55;;;;;13.70;101921.00;;;;5070301;28;20198;-72
2023/02/02 04:05:36;;;;;;;6.53;1.92;;;;;13.70;101918.00;;;;5078319;28;20194;-72
2023/02/02 04:08:04;;;;;;;7.05;1.38;;;;;13.80;101921.00;;;;5086656;28;20200;-72
2023/02/02 04:10:32;;;;;;;9.48;2.50;;;;;13.80;101908.00;;;;5080411;28;20263;-72
2023/02/02 04:12:59;;;;;;;6.22;1.85;;;;;13.80;101911.00;;;;5078279;28;20214;-72
2023/02/02 04:15:27;;;;;;;11.13;1.88;;;;;13.80;101904.00;;;;5078136;28;20205;-72
2023/02/02 04:17:54;;;;;;;6.95;2.03;;;;;13.80;101902.00;;;;5083344;28;20506;-72
2023/02/02 04:20:21;;;;;;;4.63;1.30;;;;;13.80;101911.00;;;;5081686;28;20226;-72
2023/02/02 04:22:49;;;;;;;10.50;1.85;;;;;13.80;101917.00;;;;5068876;28;20210;-72
2023/02/02 04:25:16;;;;;;;5.65;1.40;;;;;13.80;101908.00;;;;5076476;28;20202;-72
2023/02/02 04:27:45;;;;;;;7.57;1.48;;;;;13.80;101902.00;;;;5087948;28;20214;-72
2023/02/02 04:30:12;;;;;;;4.70;1.30;;;;;13.90;101904.00;;;;5085948;28;20201;-72
2023/02/02 04:32:40;;;;;;;5.63;1.60;;;;;13.90;101897.00;;;;5081530;28;20691;-72
2023/02/02 04:35:08;;;;;;;11.10;1.30;;;;;13.90;101907.00;;;;5075911;28;20195;-72
2023/02/02 04:37:35;;;;;;;3.38;0.98;;;;;13.90;101915.00;;;;5077494;28;20199;-72
2023/02/02 04:40:02;;;;;;;4.20;1.20;;;;;13.90;101920.00;;;;5069527;28;20221;-72
2023/02/02 04:42:31;;;;;;;4.60;1.30;;;;;13.90;101921.00;;;;5078672;28;20203;-72
2023/02/02 04:44:59;;;;;;;8.48;1.02;;;;;13.90;101930.00;;;;5071737;28;20199;-72
2023/02/02 04:47:26;;;;;;;6.55;1.42;;;;;13.90;101913.00;;;;5082906;28;20225;-72
2023/02/02 04:49:54;;;;;;;4.32;1.20;;;;;14.00;101910.00;;;;5074165;28;20582;-72
2023/02/02 04:52:21;;;;;;;5.72;1.27;;;;;14.00;101919.00;;;;5070479;28;20222;-72
2023/02/02 04:54:48;;;;;;;6.65;1.60;;;;;14.00;101919.00;;;;5069906;28;20206;-72
2023/02/02 04:57:16;;;;;;;7.03;1.58;;;;;14.00;101916.00;;;;5086749;28;20206;-72
2023/02/02 04:59:43;;;;;;;8.55;1.40;;;;;14.00;101919.00;;;;5087236;28;20218;-72
2023/02/02 05:02:12;;;;;;;7.57;1.20;;;;;14.00;101931.00;;;;5090261;28;20189;-72
2023/02/02 05:04:39;;;;;;;6.55;1.30;;;;;14.00;101930.00;;;;5090205;28;20198;-72
2023/02/02 05:07:06;;;;;;;4.70;1.23;;;;;14.00;101939.00;;;;5084140;28;20290;-72
2023/02/02 05:09:34;;;;;;;7.38;1.55;;;;;14.00;101932.00;;;;5072746;28;20199;-72
2023/02/02 05:12:01;;;;;;;6.68;1.65;;;;;14.10;101939.00;;;;5073893;28;20197;-72
2023/02/02 05:14:28;;;;;;;5.72;1.33;;;;;14.10;101939.00;;;;5077327;28;20205;-72
2023/02/02 05:16:55;;;;;;;7.15;1.40;;;;;14.10;101936.00;;;;5078085;28;20198;-72
2023/02/02 05:19:24;;;;;;;6.47;1.60;;;;;14.10;101939.00;;;;5083763;28;20217;-72
2023/02/02 05:21:53;;;;;;;8.25;1.40;;;;;14.10;101938.00;;;;5076065;28;20184;-72
2023/02/02 05:24:20;;;;;;;6.10;1.48;;;;;14.10;101945.00;;;;5077637;28;20287;-72
2023/02/02 05:26:48;;;;;;;4.65;1.48;;;;;14.10;101939.00;;;;5081690;28;20210;-72
2023/02/02 05:29:15;;;;;;;7.05;1.23;;;;;14.10;101952.00;;;;5088691;28;20560;-72
2023/02/02 05:31:42;;;;;;;7.00;1.20;;;;;14.10;101935.00;;;;5089382;28;21507;-72
2023/02/02 05:34:10;;;;;;;6.30;1.63;;;;;14.10;101941.00;;;;5076160;28;20198;-72
2023/02/02 05:36:38;;;;;;;11.20;1.42;;;;;14.10;101935.00;;;;5087754;28;20191;-72
2023/02/02 05:39:06;;;;;;;3.72;1.17;;;;;14.10;101943.00;;;;5075255;28;20218;-72
2023/02/02 05:41:33;;;;;;;4.05;1.60;;;;;14.10;101922.00;;;;5079471;28;20561;-72
2023/02/02 05:44:01;;;;;;;3.17;1.20;;;;;14.20;101929.00;;;;5075860;28;20201;-72
2023/02/02 05:46:29;;;;;;;5.15;1.23;;;;;14.20;101935.00;;;;5070218;28;20238;-71
2023/02/02 05:48:57;;;;;;;7.82;1.98;;;;;14.20;101939.00;;;;5084214;28;20197;-72
2023/02/02 05:51:29;;;;;;;6.20;1.35;;;;;14.20;101936.00;;;;5089397;28;20749;-72
2023/02/02 05:53:58;;;;;;;5.57;1.55;;;;;14.20;101926.00;;;;5076768;28;20218;-72
2023/02/02 05:56:25;;;;;;;3.47;0.93;;;;;14.20;101938.00;;;;5069948;28;20195;-72
2023/02/02 05:58:53;;;;;;;5.55;0.95;;;;;14.20;101943.00;;;;5076655;28;20194;-71
2023/02/02 06:01:21;;;;;;;3.63;1.42;;;;;14.30;101939.00;;;;5088776;28;20213;-72
2023/02/02 06:03:48;;;;;;;3.13;1.42;;;;;14.20;101949.00;;;;5078876;28;20225;-72
2023/02/02 06:06:15;;;;;;;5.95;1.25;;;;;14.20;101955.00;;;;5085645;28;20668;-72
2023/02/02 06:08:42;;;;;;;4.22;1.25;;;;;14.20;101942.00;;;;5086627;28;20198;-72
2023/02/02 06:11:13;;;;;;;6.55;1.60;;;;;14.20;101947.00;;;;5086684;28;20194;-73
2023/02/02 06:13:40;;;;;;;11.10;1.65;;;;;14.20;101954.00;;;;5080365;28;20191;-73
2023/02/02 06:16:08;;;;;;;4.72;1.20;;;;;14.20;101954.00;;;;5078397;28;20194;-73
2023/02/02 06:18:36;;;;;;;5.15;1.27;;;;;14.20;101960.00;;;;5084844;28;20190;-73
2023/02/02 06:21:05;;;;;;;4.43;1.52;;;;;14.20;101945.00;;;;5086443;28;20237;-73
2023/02/02 06:23:33;;;;;;;4.50;1.73;;;;;14.20;101951.00;;;;5073534;28;20199;-73
2023/02/02 06:26:02;;;;;;;5.20;1.33;;;;;14.20;101954.00;;;;5072588;28;20187;-73
2023/02/02 06:28:30;;;;;;;4.32;1.35;;;;;14.20;101952.00;;;;5082165;28;21107;-73
2023/02/02 06:31:04;;;;;;;4.80;1.35;;;;;14.10;101968.00;;;;5079145;28;20199;-73
2023/02/02 06:33:31;;;;;;;4.63;0.93;;;;;14.20;101968.00;;;;5073818;28;20203;-73
2023/02/02 06:36:00;;;;;;;7.50;1.05;;;;;14.20;101969.00;;;;5072897;28;20669;-73
2023/02/02 06:38:28;;;;;;;5.28;1.08;;;;;14.20;101973.00;;;;5081270;28;21140;-73
2023/02/02 06:40:55;;;;;;;3.30;0.98;;;;;14.10;101973.00;;;;5079828;28;20222;-73
2023/02/02 06:43:22;;;;;;;5.43;0.93;;;;;14.10;101971.00;;;;5073984;28;20619;-73
2023/02/02 06:45:51;;;;;;;5.57;1.48;;;;;14.10;101985.00;;;;5072031;28;20230;-74
2023/02/02 06:48:18;;;;;;;6.40;1.63;;;;;14.10;101981.00;;;;5070097;28;20195;-74
2023/02/02 06:50:45;;;;;;;3.53;1.02;;;;;14.10;101982.00;;;;5078533;28;20197;-74
2023/02/02 06:53:12;;;;;;;5.47;1.27;;;;;14.10;101987.00;;;;5088861;28;20217;-74
2023/02/02 06:55:40;;;;;;;6.25;1.20;;;;;14.10;101992.00;;;;5088197;28;20206;-74
2023/02/02 06:58:07;;;;;;;7.45;1.48;;;;;14.10;101991.00;;;;5083670;28;20823;-75
2023/02/02 07:00:37;;;;;;;6.72;2.38;;;;;14.10;101999.00;;;;5084497;28;20245;-74
2023/02/02 07:03:05;;;;;;;7.70;1.65;;;;;14.10;101995.00;;;;5080919;28;20198;-74
2023/02/02 07:05:32;;;;;;;3.17;1.33;;;;;14.10;101989.00;;;;5079721;28;20198;-73
2023/02/02 07:08:00;;;;;;;4.47;1.10;;;;;14.10;101989.00;;;;5088091;28;20234;-73
2023/02/02 07:10:27;;;;;;;5.53;1.40;;;;;14.10;101980.00;;;;5088268;28;20202;-75
2023/02/02 07:12:54;;;;;;;6.22;1.42;;;;;14.10;101978.00;;;;5089863;28;20217;-72
2023/02/02 07:15:22;;;;;;;5.15;1.48;;;;;14.00;101978.00;;;;5089316;28;20191;-72
2023/02/02 07:17:49;;;;;;;5.15;1.40;;;;;14.00;101982.00;;;;5085101;28;20202;-72
2023/02/02 07:20:18;;;;;;;5.13;1.52;;;;;14.00;101989.00;;;;5086774;28;20236;-72
2023/02/02 07:22:45;;;;;;;7.85;1.50;;;;;14.00;101990.00;;;;5083456;28;20209;-72
2023/02/02 07:25:13;;;;;;;6.35;1.50;;;;;14.00;101987.00;;;;5069929;28;20199;-72
2023/02/02 07:27:40;;;;;;;7.72;1.90;;;;;14.00;101999.00;;;;5080415;28;20567;-72
2023/02/02 07:30:09;;;;;;;4.63;1.27;;;;;14.00;101995.00;;;;5081781;28;20199;-72
2023/02/02 07:32:36;;;;;;;5.65;1.75;;;;;14.00;102001.00;;;;5085940;28;20202;-72
2023/02/02 07:35:03;;;;;;;5.25;1.67;;;;;14.00;102005.00;;;;5070395;28;20187;-72
2023/02/02 07:37:32;;;;;;;5.57;1.67;;;;;14.00;102011.00;;;;5087522;28;20195;-72
2023/02/02 07:39:59;;;;;;;5.35;1.63;;;;;14.00;102017.00;;;;5087506;28;20222;-72
2023/02/02 07:42:26;;;;;;;6.03;1.48;;;;;14.00;102020.00;;;;5088193;28;20195;-72
2023/02/02 07:44:54;;;;;;;8.30;1.60;;;;;14.00;102022.00;;;;5086735;28;20197;-74
2023/02/02 07:47:21;;;;;;;6.65;1.02;;;;;14.00;102026.00;;;;5083284;28;20230;-74
2023/02/02 07:49:48;;;;;;;7.03;1.60;;;;;14.00;102025.00;;;;5076430;28;20657;-74
2023/02/02 07:52:15;;;;;;;7.55;1.88;;;;;14.10;102027.00;;;;5072870;28;20190;-74
2023/02/02 07:54:45;;;;;;;5.60;1.50;;;;;14.00;102026.00;;;;5086408;28;20202;-74
2023/02/02 07:57:12;;;;;;;4.85;1.40;;;;;14.00;102029.00;;;;5081515;28;20199;-75
2023/02/02 07:59:39;;;;;;;5.65;1.90;;;;;14.00;102031.00;;;;5067475;28;20568;-74
2023/02/02 08:02:08;;;;;;;6.53;1.52;;;;;14.00;102036.00;;;;5076161;28;20676;-74
2023/02/02 08:04:35;;;;;;;9.65;1.60;;;;;14.00;102037.00;;;;5081352;28;20698;-74
2023/02/02 08:07:03;;;;;;;4.45;1.50;;;;;14.00;102044.00;;;;5086149;28;20201;-74
2023/02/02 08:09:31;;;;;;;4.35;1.95;;;;;14.00;102044.00;;;;5075132;28;20195;-74
2023/02/02 08:12:01;;;;;;;7.70;1.15;;;;;14.00;102050.00;;;;5087991;28;20227;-74
2023/02/02 08:14:28;;;;;;;6.80;1.63;;;;;14.00;102049.00;;;;5075800;28;20677;-74
2023/02/02 08:16:56;;;;;;;4.53;1.55;;;;;14.00;102050.00;;;;5068206;28;20550;-74
2023/02/02 08:19:23;;;;;;;4.65;1.50;;;;;14.10;102050.00;;;;5076229;28;20210;-74
2023/02/02 08:21:50;;;;;;;5.43;1.48;;;;;14.10;102057.00;;;;5088967;28;20226;-74
2023/02/02 08:24:17;;;;;;;9.27;2.25;;;;;14.10;102046.00;;;;5084894;28;20202;-74
2023/02/02 08:26:45;;;;;;;2.88;0.95;;;;;14.10;102058.00;;;;5083413;28;20198;-74
2023/02/02 08:29:16;;;;;;;3.28;1.20;;;;;14.10;102058.00;;;;5090618;28;20201;-74
2023/02/02 08:31:44;;;;;;;6.70;1.77;;;;;14.10;102061.00;;;;5091864;28;20190;-75
2023/02/02 08:34:12;;;;;;;4.90;1.23;;;;;14.20;102069.00;;;;5086980;28;20195;-74
2023/02/02 08:36:40;;;;;;;3.30;1.30;;;;;14.20;102074.00;;;;5088529;28;20195;-74
2023/02/02 08:39:10;;;;;;;4.28;1.13;;;;;14.10;102078.00;;;;5091931;28;20644;-74
2023/02/02 08:41:38;;;;;;;7.80;1.58;;;;;14.10;102087.00;;;;5083106;28;20227;-74
2023/02/02 08:44:06;;;;;;;7.13;1.40;;;;;14.20;102087.00;;;;5071190;28;20202;-74
2023/02/02 08:46:35;;;;;;;4.22;1.55;;;;;14.20;102075.00;;;;5079303;28;20222;-74
2023/02/02 08:49:02;;;;;;;7.35;1.45;;;;;14.20;102089.00;;;;5078037;28;20194;-74
2023/02/02 08:51:30;;;;;;;4.95;1.38;;;;;14.30;102088.00;;;;5075762;28;20209;-74
2023/02/02 08:53:57;;;;;;;4.30;1.23;;;;;14.30;102091.00;;;;5085775;28;20222;-74
2023/02/02 08:56:24;;;;;;;9.25;1.77;;;;;14.30;102096.00;;;;5089891;28;20213;-74
2023/02/02 08:58:53;;;;;;;5.22;1.73;;;;;14.30;102095.00;;;;5078205;28;20218;-74
2023/02/02 09:01:22;;;;;;;4.93;1.30;;;;;14.30;102103.00;;;;5090677;28;20229;-74
2023/02/02 09:03:54;;;;;;;8.07;1.60;;;;;14.30;102092.00;;;;5090701;28;20198;-74
2023/02/02 09:06:25;;;;;;;7.78;1.42;;;;;14.40;102100.00;;;;5083360;28;20202;-74
2023/02/02 09:08:53;;;;;;;6.95;1.95;;;;;14.40;102097.00;;;;5077640;28;20203;-74
2023/02/02 09:11:20;;;;;;;5.28;1.30;;;;;14.40;102106.00;;;;5087004;28;20203;-74
2023/02/02 09:13:52;;;;;;;7.10;1.38;;;;;14.40;102110.00;;;;5080203;28;20681;-74
2023/02/02 09:16:20;;;;;;;6.82;1.30;;;;;14.50;102117.00;;;;5067642;28;20298;-74
2023/02/02 09:18:48;;;;;;;6.53;1.77;;;;;14.50;102117.00;;;;5076350;28;20198;-74
2023/02/02 09:21:18;;;;;;;9.48;1.60;;;;;14.40;102115.00;;;;5075219;28;20256;-74
2023/02/02 09:23:46;;;;;;;8.88;1.75;;;;;14.50;102127.00;;;;5074251;28;20202;-74
2023/02/02 09:26:16;;;;;;;7.55;1.50;;;;;14.60;102128.00;;;;5088966;28;20210;-74
2023/02/02 09:28:45;;;;;;;8.43;1.45;;;;;14.60;102133.00;;;;5087507;28;20203;-74
2023/02/02 09:31:13;;;;;;;5.38;1.08;;;;;14.60;102131.00;;;;5071626;28;20210;-74
2023/02/02 09:33:41;;;;;;;3.80;1.10;;;;;14.70;102135.00;;;;5084863;28;20221;-74
2023/02/02 09:36:10;;;;;;;4.93;1.13;;;;;14.70;102141.00;;;;5069281;28;20653;-74
2023/02/02 09:38:39;;;;;;;10.75;2.20;;;;;14.70;102136.00;;;;5074753;28;20198;-74
2023/02/02 09:41:37;;;;;;;5.35;1.40;;;;;14.70;102141.00;;;;5068723;28;20480;-74
2023/02/02 09:44:14;;;;;;;6.47;2.13;;;;;14.80;102142.00;;;;5083108;28;20198;-74
2023/02/02 09:46:53;;;;;;;5.07;1.63;;;;;14.80;102154.00;;;;5086025;28;20227;-74
2023/02/02 09:49:25;;;;;;;5.15;1.63;;;;;14.80;102155.00;;;;5074068;28;20201;-74
2023/02/02 09:51:59;;;;;;;7.32;1.30;;;;;14.90;102152.00;;;;5077311;28;20198;-74
2023/02/02 09:54:34;;;;;;;5.78;1.45;;;;;14.90;102148.00;;;;5079124;28;20222;-74
2023/02/02 09:57:05;;;;;;;4.78;1.10;;;;;14.90;102157.00;;;;5075671;28;20660;-74
2023/02/02 09:59:37;;;;;;;9.32;2.08;;;;;14.90;102171.00;;;;5090021;28;20201;-74
2023/02/02 10:02:13;;;;;;;7.63;1.35;;;;;14.90;102164.00;;;;5089412;28;20233;-74
2023/02/02 10:04:43;;;;;;;5.70;1.40;;;;;14.90;102167.00;;;;5086270;28;20213;-74
2023/02/02 10:07:17;;;;;;;9.63;3.05;;;;;14.90;102159.00;;;;5069694;28;20306;-74
2023/02/02 10:09:50;;;;;;;5.40;2.05;;;;;14.90;102168.00;;;;5078818;28;20194;-74
2023/02/02 10:12:29;;;;;;;4.90;1.98;;;;;14.90;102171.00;;;;5077908;28;20202;-74
2023/02/02 10:15:03;;;;;;;7.72;2.83;;;;;15.00;102175.00;;;;5069337;28;20675;-73
2023/02/02 10:17:40;;;;;;;9.55;1.92;;;;;14.90;102173.00;;;;5069074;28;20199;-74
2023/02/02 10:20:24;;;;;;;5.97;1.70;;;;;14.90;102181.00;;;;5081681;28;20201;-73
2023/02/02 10:22:52;;;;;;;10.10;2.10;;;;;15.00;102183.00;;;;5081620;28;20198;-73
2023/02/02 10:25:26;;;;;;;10.07;2.22;;;;;15.00;102189.00;;;;5083600;28;20205;-74
2023/02/02 10:28:00;;;;;;;5.15;1.73;;;;;15.00;102188.00;;;;5068557;28;20203;-73
2023/02/02 10:30:39;;;;;;;6.38;1.98;;;;;15.00;102184.00;;;;5073008;28;20228;-73
2023/02/02 10:33:09;;;;;;;8.18;3.25;;;;;15.10;102188.00;;;;5073036;28;20660;-73
2023/02/02 10:35:42;;;;;;;7.72;3.40;;;;;15.10;102183.00;;;;5087309;28;20202;-73
2023/02/02 10:38:20;;;;;;;5.85;3.22;;;;;15.10;102186.00;;;;5081385;28;20198;-74
2023/02/02 10:40:58;;;;;;;9.88;2.17;;;;;15.10;102191.00;;;;5084871;28;20696;-73
2023/02/02 10:44:00;;;;;;;5.95;2.22;;;;;15.10;102189.00;;;;5086193;28;20202;-74
2023/02/02 10:46:33;;;;;;;4.13;2.10;;;;;15.20;102200.00;;;;5070793;28;20230;-74
2023/02/02 10:49:21;;;;;;;6.22;2.08;;;;;15.10;102198.00;;;;5081653;28;20199;-74
2023/02/02 10:51:56;;;;;;;6.50;1.55;;;;;15.20;102207.00;;;;5086956;28;20209;-74
2023/02/02 10:54:46;;;;;;;7.00;1.70;;;;;15.10;102206.00;;;;5078958;28;20296;-74
2023/02/02 10:57:22;;;;;;;5.10;0.88;;;;;15.20;102213.00;;;;5068969;28;20600;-73
2023/02/02 10:59:56;;;;;;;3.67;1.08;;;;;15.20;102201.00;;;;5082716;28;20746;-73
2023/02/02 11:02:24;;;;;;;5.85;1.77;;;;;15.30;102201.00;;;;5077448;28;20227;-74
2023/02/02 11:07:37;;;;;;;3.00;0.95;;;;;15.20;102198.00;;;;5088634;28;20196;-74
2023/02/02 11:10:04;;;;;;;4.03;1.10;;;;;15.20;102199.00;;;;5076947;28;20484;-74
2023/02/02 11:12:36;;;;;;;3.80;1.00;;;;;15.20;102201.00;;;;5080884;28;20631;-73
2023/02/02 11:15:08;;;;;;;2.50;0.70;;;;;15.20;102196.00;;;;5076757;28;20550;-73
2023/02/02 11:17:35;;;;;;;17.95;9.80;;;;;15.20;102198.00;;;;5082780;28;20549;-73
2023/02/02 11:20:21;;;;;;;10.05;4.35;;;;;15.30;102196.00;;;;5075435;28;20195;-73
2023/02/02 11:22:59;;;;;;;9.27;4.13;;;;;15.30;102204.00;;;;5068986;28;20226;-73
2023/02/02 11:25:31;;;;;;;4.93;2.15;;;;;15.30;102198.00;;;;5073071;28;20186;-73
2023/02/02 11:28:00;;;;;;;3.90;1.70;;;;;15.30;102196.00;;;;5088499;28;20209;-73
2023/02/02 11:30:32;;;;;;;9.40;2.45;;;;;15.30;102200.00;;;;5072140;28;20861;-72
2023/02/02 11:33:01;;;;;;;6.03;2.00;;;;;15.30;102201.00;;;;5082175;28;20202;-74
2023/02/02 11:35:29;;;;;;;6.53;4.20;;;;;15.30;102195.00;;;;5068773;28;20619;-72
2023/02/02 11:38:07;;;;;;;7.35;4.72;;;;;15.30;102184.00;;;;5077886;28;20302;-73
2023/02/02 11:40:37;;;;;;;3.85;1.85;;;;;15.40;102201.00;;;;5082079;28;20204;-73
2023/02/02 11:43:15;;;;;;;2.90;1.20;;;;;15.40;102201.00;;;;5082910;28;20201;-73
2023/02/02 11:45:44;;;;;;;5.75;1.20;;;;;15.40;102191.00;;;;5074481;28;20209;-72
2023/02/02 11:48:16;;;;;;;3.08;1.13;;;;;15.30;102195.00;;;;5074291;28;20202;-72
2023/02/02 11:50:47;;;;;;;5.18;2.08;;;;;15.30;102193.00;;;;5084282;28;20191;-73
2023/02/02 11:53:24;;;;;;;4.53;1.10;;;;;15.30;102191.00;;;;5084030;28;20275;-72
2023/02/02 11:55:52;;;;;;;6.70;2.10;;;;;15.40;102199.00;;;;5080273;28;20198;-72
2023/02/02 11:58:26;;;;;;;3.63;1.70;;;;;15.40;102196.00;;;;5082281;28;20281;-72
2023/02/02 12:00:57;;;;;;;5.05;1.65;;;;;15.40;102184.00;;;;5080429;28;20201;-73
2023/02/02 12:03:27;;;;;;;7.68;1.73;;;;;15.40;102191.00;;;;5073530;28;20191;-72
2023/02/02 12:05:55;;;;;;;4.75;1.27;;;;;15.50;102188.00;;;;5088033;28;20202;-72
2023/02/02 12:08:23;;;;;;;4.72;0.90;;;;;15.50;102187.00;;;;5079849;28;20195;-72
2023/02/02 12:10:59;;;;;;;6.13;1.27;;;;;15.40;102183.00;;;;5072899;28;20281;-72
2023/02/02 12:13:58;;;;;;;2.60;0.65;;;;;15.30;102191.00;;;;5088278;28;20225;-72
2023/02/02 12:16:39;;;;;;;3.22;0.88;;;;;15.40;102194.00;;;;5073204;28;20190;-72
2023/02/02 12:19:41;;;;;;;2.17;0.90;;;;;15.30;102192.00;;;;5083763;28;20198;-72
2023/02/02 12:22:23;;;;;;;6.47;1.23;;;;;15.30;102191.00;;;;5086747;28;20217;-72
2023/02/02 12:24:56;;;;;;;3.90;0.77;;;;;15.40;102186.00;;;;5083486;28;20664;-72
2023/02/02 12:27:35;;;;;;;5.82;1.00;;;;;15.40;102186.00;;;;5088545;28;20201;-72
2023/02/02 12:30:20;;;;;;;4.43;0.98;;;;;15.40;102186.00;;;;5087915;28;20202;-72
2023/02/02 12:33:18;;;;;;;4.43;1.08;;;;;15.40;102186.00;;;;5078516;28;20680;-72
2023/02/02 12:36:07;;;;;;;4.85;1.73;;;;;15.40;102196.00;;;;5073314;28;20199;-72
2023/02/02 12:38:56;;;;;;;5.72;1.27;;;;;15.40;102185.00;;;;5074971;28;20205;-72